createdAt,value
2023-01-29T00:02:09.075Z,101084.57
2023-01-29T00:04:39.959Z,101086.17
2023-01-29T00:07:10.777Z,101086.75
2023-01-29T00:09:41.590Z,101089.78
2023-01-29T00:12:12.728Z,101091.00
2023-01-29T00:14:43.574Z,101092.23
2023-01-29T00:17:14.766Z,101092.28
2023-01-29T00:19:45.598Z,101092.49
2023-01-29T00:22:16.361Z,101093.73
2023-01-29T00:24:46.979Z,101092.27
2023-01-29T00:27:17.937Z,101095.92
2023-01-29T00:30:09.709Z,101101.34
2023-01-29T00:32:40.885Z,101106.09
2023-01-29T00:35:12.205Z,101110.16
2023-01-29T00:37:43.223Z,101110.79
2023-01-29T00:40:15.132Z,101111.27
2023-01-29T00:43:04.781Z,101112.83
2023-01-29T00:45:36.856Z,101108.73
2023-01-29T00:48:08.201Z,101107.16
2023-01-29T00:50:39.051Z,101108.52
2023-01-29T00:53:10.000Z,101105.09
2023-01-29T00:55:40.728Z,101110.52
2023-01-29T00:58:11.651Z,101112.55
2023-01-29T01:00:42.521Z,101115.74
2023-01-29T01:03:13.417Z,101121.09
2023-01-29T01:05:45.204Z,101122.58
2023-01-29T01:08:33.811Z,101124.42
2023-01-29T01:11:05.314Z,101126.55
2023-01-29T01:13:36.184Z,101130.77
2023-01-29T01:16:11.592Z,101130.63
2023-01-29T01:18:42.627Z,101131.73
2023-01-29T01:21:13.470Z,101136.41
2023-01-29T01:23:44.296Z,101139.99
2023-01-29T01:26:14.999Z,101142.48
2023-01-29T01:28:45.931Z,101142.68
2023-01-29T01:31:16.864Z,101144.30
2023-01-29T01:33:47.756Z,101144.98
2023-01-29T01:36:18.630Z,101144.34
2023-01-29T01:38:49.711Z,101143.58
2023-01-29T01:41:21.834Z,101145.77
2023-01-29T01:43:53.820Z,101145.77
2023-01-29T01:46:24.931Z,101147.63
2023-01-29T01:48:56.149Z,101148.75
2023-01-29T01:51:27.033Z,101152.48
2023-01-29T01:53:58.208Z,101152.86
2023-01-29T01:56:29.511Z,101153.50
2023-01-29T01:59:00.408Z,101153.79
2023-01-29T02:01:31.235Z,101149.93
2023-01-29T02:04:20.617Z,101149.08
2023-01-29T02:07:09.110Z,101146.45
2023-01-29T02:09:40.785Z,101146.21
2023-01-29T02:12:12.855Z,101147.41
2023-01-29T02:14:43.895Z,101146.46
2023-01-29T02:17:15.174Z,101142.11
2023-01-29T02:19:48.914Z,101140.58
2023-01-29T02:22:45.332Z,101138.57
2023-01-29T02:25:21.587Z,101138.86
2023-01-29T02:28:09.718Z,101143.54
2023-01-29T02:30:41.952Z,101139.58
2023-01-29T02:33:15.682Z,101140.54
2023-01-29T02:35:46.821Z,101140.86
2023-01-29T02:38:19.254Z,101142.90
2023-01-29T02:40:52.244Z,101144.09
2023-01-29T02:43:27.605Z,101143.73
2023-01-29T02:46:01.968Z,101137.45
2023-01-29T02:48:35.437Z,101138.71
2023-01-29T02:51:07.259Z,101136.66
2023-01-29T02:53:39.544Z,101140.55
2023-01-29T02:56:11.279Z,101141.87
2023-01-29T02:58:44.680Z,101135.22
2023-01-29T03:01:17.590Z,101140.37
2023-01-29T03:03:49.262Z,101143.80
2023-01-29T03:06:22.493Z,101143.09
2023-01-29T03:08:54.687Z,101143.37
2023-01-29T03:11:25.476Z,101143.63
2023-01-29T03:13:57.442Z,101141.98
2023-01-29T03:16:29.844Z,101141.02
2023-01-29T03:19:01.698Z,101139.66
2023-01-29T03:21:55.497Z,101140.79
2023-01-29T03:24:47.910Z,101140.45
2023-01-29T03:27:37.485Z,101142.72
2023-01-29T03:30:28.248Z,101147.92
2023-01-29T03:32:59.631Z,101148.75
2023-01-29T03:35:35.551Z,101146.38
2023-01-29T03:38:06.536Z,101152.58
2023-01-29T03:40:38.077Z,101154.74
2023-01-29T03:43:10.427Z,101161.23
2023-01-29T03:45:44.558Z,101159.19
2023-01-29T03:48:17.489Z,101163.56
2023-01-29T03:50:49.602Z,101165.27
2023-01-29T03:53:22.403Z,101164.39
2023-01-29T03:55:55.475Z,101165.52
2023-01-29T03:58:26.944Z,101164.81
2023-01-29T04:00:58.751Z,101171.94
2023-01-29T04:03:31.466Z,101172.28
2023-01-29T04:06:05.622Z,101172.08
2023-01-29T04:08:37.356Z,101170.98
2023-01-29T04:11:09.969Z,101177.30
2023-01-29T04:13:40.833Z,101177.75
2023-01-29T04:16:13.072Z,101180.30
2023-01-29T04:18:44.183Z,101180.16
2023-01-29T04:21:14.982Z,101184.98
2023-01-29T04:23:45.873Z,101185.13
2023-01-29T04:26:23.393Z,101186.98
2023-01-29T04:28:59.059Z,101191.82
2023-01-29T04:31:30.587Z,101192.73
2023-01-29T04:34:04.100Z,101195.07
2023-01-29T04:36:38.078Z,101198.07
2023-01-29T04:39:11.947Z,101196.59
2023-01-29T04:41:44.410Z,101199.08
2023-01-29T04:44:17.187Z,101202.27
2023-01-29T04:46:50.102Z,101199.22
2023-01-29T04:49:23.936Z,101202.51
2023-01-29T04:51:56.801Z,101202.34
2023-01-29T04:54:29.818Z,101199.21
2023-01-29T04:57:03.407Z,101198.63
2023-01-29T04:59:35.196Z,101205.34
2023-01-29T05:02:06.381Z,101208.95
2023-01-29T05:04:37.228Z,101210.09
2023-01-29T05:07:09.072Z,101213.16
2023-01-29T05:09:39.815Z,101219.12
2023-01-29T05:12:10.802Z,101220.14
2023-01-29T05:14:41.622Z,101217.80
2023-01-29T05:17:14.397Z,101223.42
2023-01-29T05:19:45.245Z,101226.23
2023-01-29T05:22:16.944Z,101227.01
2023-01-29T05:24:47.763Z,101226.77
2023-01-29T05:27:37.283Z,101224.21
2023-01-29T05:30:09.707Z,101226.52
2023-01-29T05:32:40.736Z,101229.55
2023-01-29T05:35:11.757Z,101234.61
2023-01-29T05:37:42.492Z,101235.60
2023-01-29T05:40:14.016Z,101238.00
2023-01-29T05:42:44.881Z,101239.74
2023-01-29T05:45:15.597Z,101240.79
2023-01-29T05:47:46.348Z,101245.65
2023-01-29T05:50:18.481Z,101250.98
2023-01-29T05:52:49.486Z,101248.95
2023-01-29T05:55:20.401Z,101250.99
2023-01-29T05:57:51.189Z,101255.53
2023-01-29T06:00:22.784Z,101261.21
2023-01-29T06:02:53.723Z,101267.02
2023-01-29T06:05:24.538Z,101265.13
2023-01-29T06:07:55.375Z,101269.95
2023-01-29T06:10:26.206Z,101273.35
2023-01-29T06:12:57.061Z,101276.88
2023-01-29T06:15:27.914Z,101277.45
2023-01-29T06:17:58.754Z,101282.15
2023-01-29T06:20:29.554Z,101282.89
2023-01-29T06:23:00.498Z,101286.27
2023-01-29T06:25:31.260Z,101287.33
2023-01-29T06:28:01.980Z,101289.25
2023-01-29T06:30:33.078Z,101286.17
2023-01-29T06:33:03.815Z,101285.58
2023-01-29T06:35:34.674Z,101289.52
2023-01-29T06:38:05.426Z,101297.70
2023-01-29T06:40:36.380Z,101302.16
2023-01-29T06:43:07.103Z,101309.95
2023-01-29T06:45:38.034Z,101313.52
2023-01-29T06:48:08.969Z,101317.61
2023-01-29T06:50:40.134Z,101321.23
2023-01-29T06:53:10.833Z,101319.45
2023-01-29T06:55:41.726Z,101323.02
2023-01-29T06:58:12.846Z,101327.21
2023-01-29T07:00:43.944Z,101331.14
2023-01-29T07:03:17.333Z,101328.02
2023-01-29T07:05:53.368Z,101328.15
2023-01-29T07:08:24.534Z,101329.91
2023-01-29T07:10:55.751Z,101330.48
2023-01-29T07:13:26.564Z,101332.25
2023-01-29T07:15:57.427Z,101335.46
2023-01-29T07:18:28.347Z,101335.65
2023-01-29T07:21:01.833Z,101334.74
2023-01-29T07:23:32.949Z,101334.74
2023-01-29T07:26:04.657Z,101336.53
2023-01-29T07:28:39.188Z,101343.09
2023-01-29T07:31:14.664Z,101340.44
2023-01-29T07:33:53.452Z,101339.20
2023-01-29T07:36:29.232Z,101337.04
2023-01-29T07:39:05.769Z,101334.94
2023-01-29T07:41:38.593Z,101338.50
2023-01-29T07:56:14.888Z,101352.13
2023-01-29T07:58:46.060Z,101357.86
2023-01-29T08:01:17.211Z,101356.20
2023-01-29T08:03:50.543Z,101357.83
2023-01-29T08:06:22.685Z,101361.25
2023-01-29T08:08:55.902Z,101360.31
2023-01-29T08:11:26.819Z,101366.15
2023-01-29T08:13:57.954Z,101369.09
2023-01-29T08:16:29.268Z,101373.05
2023-01-29T08:19:00.160Z,101372.88
2023-01-29T08:21:31.195Z,101370.32
2023-01-29T08:26:37.872Z,101365.64
2023-01-29T08:29:08.630Z,101368.23
2023-01-29T08:31:39.587Z,101369.86
2023-01-29T08:34:10.637Z,101372.94
2023-01-29T08:36:41.432Z,101379.63
2023-01-29T08:39:12.452Z,101383.48
2023-01-29T08:41:43.190Z,101384.20
2023-01-29T08:44:14.209Z,101383.67
2023-01-29T08:46:45.249Z,101383.46
2023-01-29T08:49:16.478Z,101379.10
2023-01-29T08:51:47.674Z,101376.08
2023-01-29T08:54:18.768Z,101375.70
2023-01-29T08:56:49.757Z,101378.71
2023-01-29T08:59:22.993Z,101373.13
2023-01-29T09:01:53.903Z,101376.94
2023-01-29T09:04:25.318Z,101374.35
2023-01-29T09:07:03.849Z,101377.21
2023-01-29T09:09:35.244Z,101377.98
2023-01-29T09:12:06.390Z,101376.90
2023-01-29T09:14:37.280Z,101373.06
2023-01-29T09:17:08.069Z,101371.85
2023-01-29T09:19:38.999Z,101363.49
2023-01-29T09:22:11.615Z,101360.38
2023-01-29T09:24:42.983Z,101364.31
2023-01-29T09:27:13.725Z,101358.64
2023-01-29T09:29:44.503Z,101358.58
2023-01-29T09:32:16.849Z,101349.72
2023-01-29T09:34:50.484Z,101349.20
2023-01-29T09:37:26.342Z,101348.06
2023-01-29T09:39:57.270Z,101346.77
2023-01-29T09:42:29.240Z,101347.62
2023-01-29T09:45:03.181Z,101352.85
2023-01-29T09:47:34.935Z,101351.62
2023-01-29T09:50:07.005Z,101355.51
2023-01-29T09:52:38.303Z,101350.73
2023-01-29T09:55:12.080Z,101349.58
2023-01-29T09:57:45.961Z,101345.00
2023-01-29T10:00:17.786Z,101346.09
2023-01-29T10:03:02.005Z,101347.11
2023-01-29T10:05:35.917Z,101343.98
2023-01-29T10:08:11.464Z,101340.80
2023-01-29T10:10:45.479Z,101341.69
2023-01-29T10:13:19.804Z,101336.56
2023-01-29T10:15:54.760Z,101332.33
2023-01-29T10:18:48.263Z,101330.83
2023-01-29T10:21:25.039Z,101330.46
2023-01-29T10:23:56.318Z,101333.27
2023-01-29T10:26:28.047Z,101336.17
2023-01-29T10:28:58.819Z,101334.33
2023-01-29T10:31:32.993Z,101335.27
2023-01-29T10:34:04.737Z,101333.70
2023-01-29T10:36:37.539Z,101333.69
2023-01-29T10:39:11.009Z,101331.86
2023-01-29T10:41:46.335Z,101328.95
2023-01-29T10:44:23.435Z,101326.48
2023-01-29T10:47:07.163Z,101323.89
2023-01-29T10:49:48.067Z,101316.20
2023-01-29T10:52:23.610Z,101315.64
2023-01-29T10:54:58.946Z,101318.86
2023-01-29T10:57:34.858Z,101315.94
2023-01-29T11:00:12.971Z,101311.45
2023-01-29T11:02:48.902Z,101312.64
2023-01-29T11:05:22.640Z,101304.80
2023-01-29T11:07:57.081Z,101303.83
2023-01-29T11:10:27.938Z,101304.92
2023-01-29T11:13:03.007Z,101301.01
2023-01-29T11:15:35.125Z,101296.81
2023-01-29T11:18:11.271Z,101292.84
2023-01-29T11:20:42.353Z,101294.23
2023-01-29T11:23:26.185Z,101292.10
2023-01-29T11:26:00.400Z,101290.89
2023-01-29T11:28:42.031Z,101287.91
2023-01-29T11:31:20.099Z,101281.40
2023-01-29T11:33:51.053Z,101274.88
2023-01-29T11:36:28.548Z,101276.20
2023-01-29T11:39:10.487Z,101275.54
2023-01-29T11:41:46.366Z,101271.63
2023-01-29T11:44:23.032Z,101267.43
2023-01-29T11:46:53.861Z,101269.67
2023-01-29T11:49:29.877Z,101270.66
2023-01-29T11:52:02.035Z,101267.26
2023-01-29T11:54:35.072Z,101263.63
2023-01-29T11:57:09.335Z,101268.30
2023-01-29T11:59:49.079Z,101269.54
2023-01-29T12:02:26.744Z,101270.20
2023-01-29T12:05:00.730Z,101268.73
2023-01-29T12:07:32.753Z,101269.48
2023-01-29T12:10:06.588Z,101267.30
2023-01-29T12:12:41.235Z,101266.38
2023-01-29T12:15:20.413Z,101264.13
2023-01-29T12:17:59.319Z,101268.02
2023-01-29T12:20:37.320Z,101264.83
2023-01-29T12:23:15.705Z,101267.79
2023-01-29T12:25:51.351Z,101269.19
2023-01-29T12:28:24.089Z,101269.63
2023-01-29T12:31:06.707Z,101267.02
2023-01-29T12:33:40.225Z,101264.23
2023-01-29T12:36:13.853Z,101260.89
2023-01-29T12:38:44.696Z,101258.78
2023-01-29T12:41:22.454Z,101257.32
2023-01-29T12:43:53.842Z,101257.69
2023-01-29T12:46:25.999Z,101253.69
2023-01-29T12:48:57.329Z,101254.80
2023-01-29T12:51:32.902Z,101256.20
2023-01-29T12:54:04.049Z,101257.42
2023-01-29T12:56:37.665Z,101258.26
2023-01-29T12:59:14.647Z,101262.84
2023-01-29T13:01:46.913Z,101262.39
2023-01-29T13:04:18.122Z,101268.74
2023-01-29T13:06:51.715Z,101274.75
2023-01-29T13:09:22.943Z,101275.25
2023-01-29T13:11:54.931Z,101274.64
2023-01-29T13:14:26.185Z,101270.89
2023-01-29T13:17:08.748Z,101270.66
2023-01-29T13:19:39.981Z,101270.48
2023-01-29T13:22:14.828Z,101268.27
2023-01-29T13:24:55.489Z,101271.89
2023-01-29T13:27:34.718Z,101271.39
2023-01-29T13:30:06.157Z,101271.94
2023-01-29T13:32:38.063Z,101266.48
2023-01-29T13:35:14.552Z,101266.92
2023-01-29T13:37:48.197Z,101271.23
2023-01-29T13:40:24.387Z,101269.83
2023-01-29T13:42:55.215Z,101270.63
2023-01-29T13:45:27.101Z,101269.73
2023-01-29T13:48:09.451Z,101271.70
2023-01-29T13:50:41.281Z,101276.70
2023-01-29T13:53:19.779Z,101277.58
2023-01-29T13:55:50.633Z,101278.27
2023-01-29T13:58:41.335Z,101280.10
2023-01-29T14:01:12.195Z,101277.94
2023-01-29T14:04:03.631Z,101277.16
2023-01-29T14:06:43.990Z,101279.13
2023-01-29T14:09:32.733Z,101282.51
2023-01-29T14:12:03.547Z,101282.02
2023-01-29T14:15:06.032Z,101282.67
2023-01-29T14:17:37.423Z,101280.27
2023-01-29T14:20:18.248Z,101282.00
2023-01-29T14:22:50.576Z,101283.38
2023-01-29T14:25:21.590Z,101277.46
2023-01-29T14:27:52.358Z,101275.74
2023-01-29T14:30:23.372Z,101272.89
2023-01-29T14:32:54.206Z,101276.97
2023-01-29T14:35:26.774Z,101277.98
2023-01-29T14:37:57.922Z,101275.27
2023-01-29T14:40:29.899Z,101274.96
2023-01-29T14:43:01.824Z,101272.89
2023-01-29T14:45:33.281Z,101273.03
2023-01-29T14:48:05.513Z,101271.30
2023-01-29T14:50:41.450Z,101272.92
2023-01-29T14:53:14.358Z,101269.10
2023-01-29T14:55:46.458Z,101273.64
2023-01-29T14:58:17.780Z,101271.85
2023-01-29T15:00:51.168Z,101269.00
2023-01-29T15:03:23.920Z,101268.84
2023-01-29T15:05:54.711Z,101271.44
2023-01-29T15:08:30.211Z,101270.61
2023-01-29T15:11:19.993Z,101271.44
2023-01-29T15:13:52.363Z,101270.45
2023-01-29T15:16:24.487Z,101271.95
2023-01-29T15:18:56.506Z,101273.52
2023-01-29T15:21:27.362Z,101274.77
2023-01-29T15:24:06.416Z,101277.90
2023-01-29T15:26:37.306Z,101280.05
2023-01-29T15:29:08.019Z,101280.50
2023-01-29T15:31:38.915Z,101280.34
2023-01-29T15:34:10.189Z,101285.09
2023-01-29T15:36:41.028Z,101287.20
2023-01-29T15:39:18.925Z,101290.63
2023-01-29T15:41:51.021Z,101293.62
2023-01-29T15:44:22.433Z,101294.09
2023-01-29T15:46:54.559Z,101297.94
2023-01-29T15:49:26.461Z,101296.80
2023-01-29T15:51:58.808Z,101300.25
2023-01-29T15:54:30.794Z,101303.67
2023-01-29T15:57:01.635Z,101312.14
2023-01-29T15:59:34.676Z,101313.06
2023-01-29T16:05:07.605Z,101313.06
2023-01-29T16:07:38.353Z,101312.23
2023-01-29T16:10:13.765Z,101310.28
2023-01-29T16:12:47.492Z,101309.95
2023-01-29T16:15:19.629Z,101309.85
2023-01-29T16:17:50.777Z,101315.36
2023-01-29T16:20:31.991Z,101320.88
2023-01-29T16:23:04.668Z,101323.88
2023-01-29T16:25:35.880Z,101326.02
2023-01-29T16:28:07.284Z,101330.64
2023-01-29T16:30:38.229Z,101333.55
2023-01-29T16:33:09.661Z,101332.09
2023-01-29T16:35:41.076Z,101329.55
2023-01-29T16:38:19.187Z,101331.75
2023-01-29T16:41:01.897Z,101325.02
2023-01-29T16:43:46.149Z,101330.60
2023-01-29T16:46:31.083Z,101334.83
2023-01-29T16:49:01.948Z,101331.52
2023-01-29T16:51:33.235Z,101330.98
2023-01-29T16:54:08.141Z,101335.36
2023-01-29T16:56:39.498Z,101333.54
2023-01-29T16:59:13.636Z,101331.01
2023-01-29T17:01:44.399Z,101330.95
2023-01-29T17:04:16.173Z,101328.03
2023-01-29T17:06:48.329Z,101329.58
2023-01-29T17:09:22.774Z,101329.02
2023-01-29T17:11:56.099Z,101328.55
2023-01-29T17:14:27.254Z,101328.73
2023-01-29T17:16:58.839Z,101327.70
2023-01-29T17:19:30.315Z,101328.02
2023-01-29T17:22:04.809Z,101325.60
2023-01-29T17:24:35.496Z,101327.17
2023-01-29T17:27:06.294Z,101325.16
2023-01-29T17:29:36.968Z,101320.45
2023-01-29T17:32:08.012Z,101320.41
2023-01-29T17:34:38.914Z,101319.26
2023-01-29T17:37:11.045Z,101315.49
2023-01-29T17:39:41.650Z,101316.02
2023-01-29T17:42:14.155Z,101313.11
2023-01-29T17:44:45.424Z,101312.98
2023-01-29T17:47:16.318Z,101315.88
2023-01-29T17:49:47.885Z,101316.59
2023-01-29T17:52:18.795Z,101317.80
2023-01-29T17:54:49.622Z,101318.54
2023-01-29T17:57:20.340Z,101318.33
2023-01-29T17:59:51.031Z,101319.98
2023-01-29T18:02:29.226Z,101318.20
2023-01-29T18:05:00.819Z,101317.79
2023-01-29T18:07:31.541Z,101322.19
2023-01-29T18:10:02.397Z,101320.37
2023-01-29T18:12:33.206Z,101317.10
2023-01-29T18:15:03.823Z,101316.64
2023-01-29T18:17:34.996Z,101319.52
2023-01-29T18:20:07.929Z,101320.51
2023-01-29T18:22:38.832Z,101319.39
2023-01-29T18:25:10.518Z,101321.71
2023-01-29T18:27:41.684Z,101325.00
2023-01-29T18:30:13.246Z,101328.30
2023-01-29T18:32:43.866Z,101329.27
2023-01-29T18:35:14.829Z,101332.36
2023-01-29T18:37:46.401Z,101329.89
2023-01-29T18:40:18.128Z,101327.86
2023-01-29T18:42:49.112Z,101327.15
2023-01-29T18:45:20.217Z,101328.86
2023-01-29T18:47:51.001Z,101326.59
2023-01-29T18:50:23.511Z,101324.01
2023-01-29T18:52:54.527Z,101320.73
2023-01-29T18:55:26.638Z,101324.39
2023-01-29T18:58:26.084Z,101321.94
2023-01-29T19:00:48.561Z,101319.13
2023-01-29T19:03:19.545Z,101318.08
2023-01-29T19:05:50.220Z,101315.21
2023-01-29T19:08:21.034Z,101315.98
2023-01-29T19:10:51.773Z,101313.89
2023-01-29T19:13:22.793Z,101312.46
2023-01-29T19:15:53.737Z,101315.05
2023-01-29T19:18:26.121Z,101312.31
2023-01-29T19:20:56.765Z,101309.54
2023-01-29T19:23:27.709Z,101308.73
2023-01-29T19:25:59.875Z,101309.46
2023-01-29T19:28:30.963Z,101314.26
2023-01-29T19:31:02.118Z,101314.77
2023-01-29T19:33:33.060Z,101316.86
2023-01-29T19:36:04.133Z,101320.35
2023-01-29T19:38:38.619Z,101321.48
2023-01-29T19:41:09.844Z,101321.51
2023-01-29T19:43:42.097Z,101325.69
2023-01-29T19:46:13.408Z,101329.58
2023-01-29T19:48:44.205Z,101333.65
2023-01-29T19:51:15.202Z,101333.33
2023-01-29T19:53:46.545Z,101335.14
2023-01-29T19:56:18.043Z,101336.03
2023-01-29T19:58:49.015Z,101330.98
2023-01-29T20:01:20.453Z,101331.17
2023-01-29T20:03:51.703Z,101330.86
2023-01-29T20:06:26.390Z,101330.08
2023-01-29T20:08:57.015Z,101327.98
2023-01-29T20:11:27.943Z,101325.41
2023-01-29T20:13:58.884Z,101323.29
2023-01-29T20:16:29.701Z,101320.55
2023-01-29T20:19:13.701Z,101320.17
2023-01-29T20:21:46.327Z,101322.21
2023-01-29T20:24:17.456Z,101323.59
2023-01-29T20:26:48.334Z,101322.04
2023-01-29T20:29:19.545Z,101326.13
2023-01-29T20:31:50.275Z,101328.62
2023-01-29T20:34:21.032Z,101336.52
2023-01-29T20:36:51.649Z,101329.89
2023-01-29T20:39:22.627Z,101335.29
2023-01-29T20:41:53.330Z,101337.00
2023-01-29T20:44:23.989Z,101337.18
2023-01-29T20:46:54.991Z,101338.27
2023-01-29T20:49:26.263Z,101338.54
2023-01-29T20:51:57.116Z,101340.16
2023-01-29T20:54:30.065Z,101335.62
2023-01-29T20:57:01.033Z,101341.83
2023-01-29T20:59:32.018Z,101340.42
2023-01-29T21:02:02.741Z,101345.30
2023-01-29T21:04:33.533Z,101345.31
2023-01-29T21:07:04.311Z,101347.35
2023-01-29T21:09:35.016Z,101350.41
2023-01-29T21:12:07.695Z,101354.11
2023-01-29T21:14:38.374Z,101357.75
2023-01-29T21:17:09.176Z,101358.41
2023-01-29T21:19:39.933Z,101361.77
2023-01-29T21:22:10.562Z,101359.75
2023-01-29T21:24:41.325Z,101362.94
2023-01-29T21:27:12.025Z,101367.99
2023-01-29T21:29:42.852Z,101364.11
2023-01-29T21:32:13.451Z,101366.84
2023-01-29T21:34:44.562Z,101362.86
2023-01-29T21:37:15.193Z,101361.61
2023-01-29T21:39:46.099Z,101359.38
2023-01-29T21:42:34.009Z,101363.48
2023-01-29T21:45:04.947Z,101361.66
2023-01-29T21:47:35.717Z,101363.89
2023-01-29T21:50:07.175Z,101363.09
2023-01-29T21:52:38.198Z,101357.36
2023-01-29T21:55:09.647Z,101355.47
2023-01-29T21:57:40.517Z,101354.75
2023-01-29T22:00:12.599Z,101353.15
2023-01-29T22:02:43.175Z,101349.23
2023-01-29T22:05:19.167Z,101350.23
2023-01-29T22:07:50.436Z,101349.89
2023-01-29T22:10:21.623Z,101347.88
2023-01-29T22:12:52.563Z,101350.58
2023-01-29T22:15:24.081Z,101345.92
2023-01-29T22:17:55.209Z,101345.02
2023-01-29T22:20:30.257Z,101347.61
2023-01-29T22:23:01.512Z,101345.88
2023-01-29T22:25:33.600Z,101338.96
2023-01-29T22:28:04.461Z,101335.44
2023-01-29T22:30:35.145Z,101337.38
2023-01-29T22:33:05.867Z,101335.62
2023-01-29T22:35:36.698Z,101332.77
2023-01-29T22:38:07.846Z,101332.44
2023-01-29T22:40:38.519Z,101330.29
2023-01-29T22:43:09.314Z,101328.60
2023-01-29T22:45:41.600Z,101326.04
2023-01-29T22:48:12.586Z,101325.48
2023-01-29T22:50:43.164Z,101327.84
2023-01-29T22:53:13.928Z,101324.45
2023-01-29T22:55:44.544Z,101322.41
2023-01-29T22:58:15.079Z,101321.98
2023-01-29T23:00:45.855Z,101323.92
2023-01-29T23:03:16.365Z,101325.20
2023-01-29T23:05:47.140Z,101323.32
2023-01-29T23:08:17.849Z,101323.36
2023-01-29T23:10:48.758Z,101325.31
2023-01-29T23:13:19.554Z,101322.15
2023-01-29T23:16:00.309Z,101321.77
2023-01-29T23:18:31.450Z,101319.44
2023-01-29T23:21:02.082Z,101318.04
2023-01-29T23:23:33.468Z,101316.48
2023-01-29T23:26:22.378Z,101320.60
2023-01-29T23:28:53.085Z,101319.17
2023-01-29T23:31:23.979Z,101315.67
2023-01-29T23:33:54.708Z,101314.86
2023-01-29T23:36:25.454Z,101318.59
2023-01-29T23:38:56.263Z,101319.11
2023-01-29T23:41:28.519Z,101313.52
2023-01-29T23:43:59.722Z,101312.24
2023-01-29T23:46:31.626Z,101307.63
2023-01-29T23:49:02.732Z,101305.58
2023-01-29T23:51:34.509Z,101308.00
2023-01-29T23:54:05.540Z,101311.30
2023-01-29T23:56:36.817Z,101308.86
2023-01-29T23:59:07.813Z,101306.95
